Time;durP1;ratioP1;P1;durP2;ratioP2;P2;SDS_P1;SDS_P2;PMS_P1;PMS_P2;Temp;Humidity;BMP_temperature;BMP_pressure;BME280_temperature;BME280_humidity;BME280_pressure;Samples;Min_cycle;Max_cycle;Signal;HPM_P1;HPM_P2
2023/07/31 00:00:22;;;;;;;10.95;3.13;;;;;;;;;;5075427;28;20020;-75
2023/07/31 00:02:47;;;;;;;6.25;2.33;;;;;;;;;;5059205;28;20501;-75
2023/07/31 00:05:12;;;;;;;9.73;2.83;;;;;;;;;;5075833;28;20497;-75
2023/07/31 00:07:38;;;;;;;12.02;2.17;;;;;;;;;;5058552;28;20074;-75
2023/07/31 00:10:03;;;;;;;7.22;2.80;;;;;;;;;;5075379;28;20047;-75
2023/07/31 00:12:28;;;;;;;6.18;2.15;;;;;;;;;;5059069;28;20091;-75
2023/07/31 00:14:54;;;;;;;7.88;2.47;;;;;;;;;;5075372;28;20028;-76
2023/07/31 00:17:19;;;;;;;10.18;2.47;;;;;;;;;;5076189;28;20020;-78
2023/07/31 00:19:46;;;;;;;8.13;2.63;;;;;;;;;;5093824;28;20110;-76
2023/07/31 00:22:11;;;;;;;9.27;2.30;;;;;;;;;;5075570;28;20477;-78
2023/07/31 00:24:37;;;;;;;10.27;2.75;;;;;;;;;;5075364;28;20086;-75
2023/07/31 00:27:02;;;;;;;11.82;2.65;;;;;;;;;;5075874;28;20016;-77
2023/07/31 00:29:27;;;;;;;7.35;2.22;;;;;;;;;;5059277;28;20024;-78
2023/07/31 00:31:53;;;;;;;8.63;2.53;;;;;;;;;;5093162;28;20417;-78
2023/07/31 00:34:18;;;;;;;7.78;2.45;;;;;;;;;;5076391;28;20051;-77
2023/07/31 00:36:46;;;;;;;8.02;2.45;;;;;;;;;;5059197;28;20074;-78
2023/07/31 00:39:11;;;;;;;6.50;2.47;;;;;;;;;;5094207;28;20020;-77
2023/07/31 00:41:36;;;;;;;6.40;2.50;;;;;;;;;;5094461;28;20078;-78
2023/07/31 00:44:02;;;;;;;8.80;2.97;;;;;;;;;;5077056;28;20027;-77
2023/07/31 00:46:27;;;;;;;8.48;2.53;;;;;;;;;;5075255;28;20020;-77
2023/07/31 00:48:52;;;;;;;7.43;2.45;;;;;;;;;;5076016;28;20106;-77
2023/07/31 00:51:17;;;;;;;7.00;2.83;;;;;;;;;;5093895;28;20032;-77
2023/07/31 00:53:43;;;;;;;9.40;3.22;;;;;;;;;;5059677;28;20031;-77
2023/07/31 00:56:08;;;;;;;11.00;3.00;;;;;;;;;;5061413;28;20058;-75
2023/07/31 00:58:34;;;;;;;8.98;2.50;;;;;;;;;;5062250;28;20055;-77
2023/07/31 01:00:59;;;;;;;9.80;3.17;;;;;;;;;;5079341;28;20061;-77
2023/07/31 01:03:24;;;;;;;6.40;2.55;;;;;;;;;;5062523;28;20519;-77
2023/07/31 01:05:56;;;;;;;11.38;2.88;;;;;;;;;;5080123;28;20050;-77
2023/07/31 01:08:42;;;;;;;7.75;2.45;;;;;;;;;;5079575;28;20474;-77
2023/07/31 01:11:25;;;;;;;11.45;4.18;;;;;;;;;;5079593;28;20073;-77
2023/07/31 01:13:50;;;;;;;5.93;2.45;;;;;;;;;;5079850;28;20103;-77
2023/07/31 01:16:16;;;;;;;7.68;3.10;;;;;;;;;;5079458;28;20119;-77
2023/07/31 01:18:41;;;;;;;9.27;3.20;;;;;;;;;;5079408;28;20028;-77
2023/07/31 01:21:19;;;;;;;8.52;3.33;;;;;;;;;;5079777;28;20024;-77
2023/07/31 01:23:56;;;;;;;9.98;3.83;;;;;;;;;;5078642;28;20063;-77
2023/07/31 01:26:28;;;;;;;13.70;4.07;;;;;;;;;;5079066;28;20063;-77
2023/07/31 01:29:03;;;;;;;11.40;3.80;;;;;;;;;;5062702;28;20031;-77
2023/07/31 01:31:29;;;;;;;8.90;3.53;;;;;;;;;;5075395;28;20044;-77
2023/07/31 01:33:59;;;;;;;7.57;3.28;;;;;;;;;;5058763;28;20547;-77
2023/07/31 01:36:24;;;;;;;13.20;4.28;;;;;;;;;;5078370;28;20557;-77
2023/07/31 01:38:50;;;;;;;8.57;3.15;;;;;;;;;;5061468;28;20107;-75
2023/07/31 01:41:18;;;;;;;14.88;4.05;;;;;;;;;;5077432;28;20103;-75
2023/07/31 01:43:45;;;;;;;10.70;3.63;;;;;;;;;;5096177;28;20019;-75
2023/07/31 01:46:10;;;;;;;9.43;3.20;;;;;;;;;;5077944;28;20051;-75
2023/07/31 01:48:36;;;;;;;10.00;3.17;;;;;;;;;;5078075;28;20403;-75
2023/07/31 01:51:02;;;;;;;14.65;3.70;;;;;;;;;;5096186;28;20508;-77
2023/07/31 01:53:31;;;;;;;9.05;4.22;;;;;;;;;;5078620;28;20020;-77
2023/07/31 01:55:56;;;;;;;13.82;3.58;;;;;;;;;;5078680;28;20020;-77
2023/07/31 01:58:21;;;;;;;11.63;4.55;;;;;;;;;;5078918;28;20031;-78
2023/07/31 02:00:48;;;;;;;12.25;4.78;;;;;;;;;;5063251;28;20140;-77
2023/07/31 02:03:13;;;;;;;9.48;4.05;;;;;;;;;;5096330;28;20106;-78
2023/07/31 02:05:46;;;;;;;14.75;3.72;;;;;;;;;;5096582;28;20474;-77
2023/07/31 02:08:12;;;;;;;8.63;3.50;;;;;;;;;;5095005;28;20023;-77
2023/07/31 02:10:37;;;;;;;9.57;3.85;;;;;;;;;;5078194;28;20020;-77
2023/07/31 02:13:03;;;;;;;9.65;3.47;;;;;;;;;;5077797;28;20446;-75
2023/07/31 02:15:29;;;;;;;10.60;3.78;;;;;;;;;;5077761;28;20085;-78
2023/07/31 02:17:55;;;;;;;11.70;4.00;;;;;;;;;;5096425;28;20028;-77
2023/07/31 02:20:20;;;;;;;10.80;3.60;;;;;;;;;;5077824;28;20107;-77
2023/07/31 02:22:45;;;;;;;9.27;3.63;;;;;;;;;;5078221;28;20058;-77
2023/07/31 02:25:10;;;;;;;7.60;2.92;;;;;;;;;;5096109;28;20020;-77
2023/07/31 02:27:36;;;;;;;13.18;4.95;;;;;;;;;;5061127;28;20490;-75
2023/07/31 02:30:01;;;;;;;9.60;3.40;;;;;;;;;;5093880;28;20137;-78
2023/07/31 02:32:26;;;;;;;10.35;3.63;;;;;;;;;;5096798;28;20020;-77
2023/07/31 02:34:52;;;;;;;11.27;3.90;;;;;;;;;;5077286;28;20027;-77
2023/07/31 02:37:17;;;;;;;11.00;3.67;;;;;;;;;;5078108;28;20385;-77
2023/07/31 02:39:42;;;;;;;13.00;4.40;;;;;;;;;;5095539;28;20031;-77
2023/07/31 02:42:08;;;;;;;11.90;3.72;;;;;;;;;;5060896;28;20020;-77
2023/07/31 02:44:33;;;;;;;9.05;3.42;;;;;;;;;;5077271;28;20046;-78
2023/07/31 02:46:58;;;;;;;12.60;3.92;;;;;;;;;;5077449;28;20020;-75
2023/07/31 02:49:23;;;;;;;11.45;4.15;;;;;;;;;;5076991;28;20485;-77
2023/07/31 02:51:49;;;;;;;13.05;3.63;;;;;;;;;;5077609;28;20030;-77
2023/07/31 02:54:14;;;;;;;11.73;3.85;;;;;;;;;;5077264;28;20034;-77
2023/07/31 02:56:39;;;;;;;12.38;3.78;;;;;;;;;;5078158;28;20031;-77
2023/07/31 02:59:04;;;;;;;10.60;3.13;;;;;;;;;;5077328;28;20028;-77
2023/07/31 03:01:30;;;;;;;9.30;3.70;;;;;;;;;;5077386;28;20107;-78
2023/07/31 03:03:56;;;;;;;8.52;2.78;;;;;;;;;;5094285;28;20020;-78
2023/07/31 03:06:22;;;;;;;12.05;3.78;;;;;;;;;;5077051;28;20389;-78
2023/07/31 03:08:47;;;;;;;9.05;3.30;;;;;;;;;;5093426;28;20066;-77
2023/07/31 03:11:12;;;;;;;10.18;4.00;;;;;;;;;;5077407;28;20023;-77
2023/07/31 03:13:37;;;;;;;10.82;3.42;;;;;;;;;;5095313;28;20016;-77
2023/07/31 03:16:03;;;;;;;15.27;3.42;;;;;;;;;;5076698;28;20485;-77
2023/07/31 03:18:28;;;;;;;11.43;3.38;;;;;;;;;;5073101;28;20039;-78
2023/07/31 03:20:53;;;;;;;6.68;3.35;;;;;;;;;;5076807;28;20035;-77
2023/07/31 03:23:19;;;;;;;10.38;3.70;;;;;;;;;;5060053;28;20024;-77
2023/07/31 03:26:01;;;;;;;12.27;3.85;;;;;;;;;;5094839;28;20016;-77
2023/07/31 03:28:26;;;;;;;10.80;3.50;;;;;;;;;;5076667;28;20439;-77
2023/07/31 03:30:52;;;;;;;9.45;3.40;;;;;;;;;;5076442;28;20024;-77
2023/07/31 03:33:18;;;;;;;7.43;3.45;;;;;;;;;;5076588;28;20024;-77
2023/07/31 03:35:43;;;;;;;11.45;4.60;;;;;;;;;;5096032;28;20024;-78
2023/07/31 03:38:09;;;;;;;9.98;3.35;;;;;;;;;;5076222;28;20509;-77
2023/07/31 03:40:34;;;;;;;9.00;3.00;;;;;;;;;;5075809;28;20486;-75
2023/07/31 03:42:59;;;;;;;10.63;3.58;;;;;;;;;;5094243;28;20031;-77
2023/07/31 03:45:24;;;;;;;11.55;3.28;;;;;;;;;;5093963;28;20031;-77
2023/07/31 03:47:50;;;;;;;11.13;3.80;;;;;;;;;;5075086;28;20019;-77
2023/07/31 03:50:15;;;;;;;12.48;3.13;;;;;;;;;;5093885;28;20016;-77
2023/07/31 03:52:41;;;;;;;7.40;3.63;;;;;;;;;;5093817;28;20024;-77
2023/07/31 03:55:06;;;;;;;9.52;3.45;;;;;;;;;;5075667;28;20097;-77
2023/07/31 03:57:32;;;;;;;9.23;3.97;;;;;;;;;;5059667;28;20347;-76
2023/07/31 03:59:58;;;;;;;6.28;3.53;;;;;;;;;;5058764;28;20115;-77
2023/07/31 04:02:23;;;;;;;11.55;3.67;;;;;;;;;;5094209;28;20020;-78
2023/07/31 04:04:48;;;;;;;6.72;3.95;;;;;;;;;;5094174;28;20520;-78
2023/07/31 04:07:13;;;;;;;16.02;4.38;;;;;;;;;;5076078;28;20119;-78
2023/07/31 04:09:39;;;;;;;10.07;3.38;;;;;;;;;;5112614;23;20043;-78
2023/07/31 04:12:04;;;;;;;8.98;3.40;;;;;;;;;;5118476;28;20020;-78
2023/07/31 04:14:29;;;;;;;10.07;3.83;;;;;;;;;;5100096;28;20032;-79
2023/07/31 04:16:55;;;;;;;10.82;3.88;;;;;;;;;;5100096;28;20507;-78
2023/07/31 04:19:20;;;;;;;9.82;3.85;;;;;;;;;;5099250;28;20031;-80
2023/07/31 04:21:45;;;;;;;13.45;3.95;;;;;;;;;;5118128;28;20027;-79
2023/07/31 04:24:11;;;;;;;9.60;4.72;;;;;;;;;;5100716;28;20046;-78
2023/07/31 04:26:36;;;;;;;8.65;4.15;;;;;;;;;;5083912;28;20020;-80
2023/07/31 04:29:01;;;;;;;10.85;4.28;;;;;;;;;;5083438;28;20019;-79
2023/07/31 04:31:26;;;;;;;8.13;3.72;;;;;;;;;;5103723;28;20023;-80
2023/07/31 04:33:55;;;;;;;13.50;4.95;;;;;;;;;;5104331;28;20024;-79
2023/07/31 04:36:20;;;;;;;11.52;4.90;;;;;;;;;;5123258;28;20019;-80
2023/07/31 04:38:45;;;;;;;10.80;4.20;;;;;;;;;;5087001;28;20038;-79
2023/07/31 04:41:11;;;;;;;10.57;5.13;;;;;;;;;;5122593;28;20019;-80
2023/07/31 04:43:38;;;;;;;12.27;4.65;;;;;;;;;;5104581;28;20044;-79
2023/07/31 04:46:04;;;;;;;19.27;5.30;;;;;;;;;;5083357;28;20411;-80
2023/07/31 04:48:32;;;;;;;14.88;5.32;;;;;;;;;;5083851;28;20059;-79
2023/07/31 04:50:57;;;;;;;11.18;5.60;;;;;;;;;;5086739;28;20078;-79
2023/07/31 04:53:23;;;;;;;13.02;6.25;;;;;;;;;;5101847;28;20028;-78
2023/07/31 04:55:48;;;;;;;10.10;5.35;;;;;;;;;;5116984;28;20051;-79
2023/07/31 04:58:13;;;;;;;10.45;5.10;;;;;;;;;;5104125;28;20027;-79
2023/07/31 05:00:39;;;;;;;11.63;5.25;;;;;;;;;;5120259;28;20019;-80
2023/07/31 05:03:04;;;;;;;11.27;4.80;;;;;;;;;;5121945;28;20015;-79
2023/07/31 05:05:30;;;;;;;16.42;5.25;;;;;;;;;;5102515;28;20481;-79
2023/07/31 05:07:55;;;;;;;14.50;5.35;;;;;;;;;;5103109;28;20021;-80
2023/07/31 05:10:20;;;;;;;17.50;5.57;;;;;;;;;;5103674;28;20074;-78
2023/07/31 05:12:46;;;;;;;15.95;5.55;;;;;;;;;;5103645;28;20024;-78
2023/07/31 05:15:11;;;;;;;13.02;5.55;;;;;;;;;;5103348;28;20024;-78
2023/07/31 05:17:36;;;;;;;18.25;5.85;;;;;;;;;;5120713;28;20110;-79
2023/07/31 05:20:04;;;;;;;11.20;5.95;;;;;;;;;;5103455;28;20024;-79
2023/07/31 05:22:30;;;;;;;7.18;5.35;;;;;;;;;;5086348;28;20068;-79
2023/07/31 05:24:55;;;;;;;11.07;5.40;;;;;;;;;;5120559;28;20114;-78
2023/07/31 05:27:20;;;;;;;16.27;5.38;;;;;;;;;;5101285;28;20020;-78
2023/07/31 05:29:46;;;;;;;11.00;5.45;;;;;;;;;;5117971;28;20019;-76
2023/07/31 05:32:11;;;;;;;16.00;6.03;;;;;;;;;;5116878;28;20019;-77
2023/07/31 05:34:37;;;;;;;11.40;5.18;;;;;;;;;;5098850;28;20028;-77
2023/07/31 05:37:02;;;;;;;9.85;5.03;;;;;;;;;;5100374;28;20031;-78
2023/07/31 05:39:27;;;;;;;10.18;5.38;;;;;;;;;;5101628;28;20392;-79
2023/07/31 05:41:53;;;;;;;12.60;5.47;;;;;;;;;;5118096;28;20469;-79
2023/07/31 05:44:18;;;;;;;11.35;5.80;;;;;;;;;;5101074;28;20023;-77
2023/07/31 05:46:43;;;;;;;17.42;5.38;;;;;;;;;;5084133;28;20051;-79
2023/07/31 05:49:08;;;;;;;18.75;5.43;;;;;;;;;;5120206;28;20473;-78
2023/07/31 05:51:34;;;;;;;11.30;5.47;;;;;;;;;;5101746;28;20036;-77
2023/07/31 05:53:59;;;;;;;11.65;4.75;;;;;;;;;;5103109;28;20030;-80
2023/07/31 05:56:26;;;;;;;13.82;5.22;;;;;;;;;;5101647;28;20421;-78
2023/07/31 05:58:52;;;;;;;11.00;5.25;;;;;;;;;;5101430;28;20031;-80
2023/07/31 06:01:17;;;;;;;9.48;5.28;;;;;;;;;;5103262;28;20020;-81
2023/07/31 06:03:42;;;;;;;9.68;5.53;;;;;;;;;;5105824;28;20028;-80
2023/07/31 06:06:08;;;;;;;13.70;4.85;;;;;;;;;;5123904;28;20110;-81
2023/07/31 06:08:33;;;;;;;8.32;4.55;;;;;;;;;;5102111;28;20051;-79
2023/07/31 06:10:58;;;;;;;17.65;7.05;;;;;;;;;;5105464;28;20026;-79
2023/07/31 06:13:24;;;;;;;18.83;4.82;;;;;;;;;;5086771;28;20035;-76
2023/07/31 06:15:49;;;;;;;13.15;4.90;;;;;;;;;;5104731;28;20106;-80
2023/07/31 06:18:14;;;;;;;10.40;4.60;;;;;;;;;;5105301;28;20107;-80
2023/07/31 06:20:41;;;;;;;8.13;4.18;;;;;;;;;;5103780;28;20131;-79
2023/07/31 06:23:06;;;;;;;12.23;4.35;;;;;;;;;;5103994;28;20049;-78
2023/07/31 06:25:31;;;;;;;9.50;3.90;;;;;;;;;;5103382;28;20020;-80
2023/07/31 06:27:57;;;;;;;15.13;4.55;;;;;;;;;;5103133;28;20430;-81
2023/07/31 06:30:22;;;;;;;7.55;3.97;;;;;;;;;;5087130;28;20034;-82
2023/07/31 06:32:47;;;;;;;10.88;5.00;;;;;;;;;;5105184;28;20034;-82
2023/07/31 06:35:12;;;;;;;13.88;4.28;;;;;;;;;;5105102;28;20027;-81
2023/07/31 06:37:40;;;;;;;11.68;3.63;;;;;;;;;;5104271;28;20019;-82
2023/07/31 06:40:07;;;;;;;11.50;4.07;;;;;;;;;;5105323;28;20361;-83
2023/07/31 06:42:32;;;;;;;13.43;3.75;;;;;;;;;;5089172;28;20019;-83
2023/07/31 06:45:00;;;;;;;13.88;3.85;;;;;;;;;;5105030;28;20057;-83
2023/07/31 06:47:26;;;;;;;9.57;3.35;;;;;;;;;;5085265;28;20081;-78
2023/07/31 06:49:51;;;;;;;8.60;2.88;;;;;;;;;;5100097;28;20060;-77
2023/07/31 06:52:16;;;;;;;7.95;3.13;;;;;;;;;;5115922;28;20036;-76
2023/07/31 06:54:41;;;;;;;7.38;4.20;;;;;;;;;;5116469;28;20034;-77
2023/07/31 06:57:07;;;;;;;9.23;3.53;;;;;;;;;;5117132;28;20027;-79
2023/07/31 06:59:33;;;;;;;6.63;2.67;;;;;;;;;;5100400;28;20444;-80
2023/07/31 07:02:00;;;;;;;4.28;2.97;;;;;;;;;;5098745;28;20016;-77
2023/07/31 07:04:26;;;;;;;7.72;2.63;;;;;;;;;;5098747;28;20026;-77
2023/07/31 07:06:51;;;;;;;3.63;2.30;;;;;;;;;;5116927;28;20020;-77
2023/07/31 07:09:17;;;;;;;4.18;2.20;;;;;;;;;;5117944;28;20023;-78
2023/07/31 07:11:43;;;;;;;5.45;2.40;;;;;;;;;;5100348;28;20027;-77
2023/07/31 07:14:08;;;;;;;5.40;2.13;;;;;;;;;;5100943;28;20047;-77
2023/07/31 07:16:33;;;;;;;4.13;2.38;;;;;;;;;;5103818;28;20028;-78
2023/07/31 07:18:59;;;;;;;6.03;2.53;;;;;;;;;;5089485;28;20016;-78
2023/07/31 07:21:24;;;;;;;6.35;2.45;;;;;;;;;;5101436;28;20378;-79
2023/07/31 07:23:49;;;;;;;7.18;2.42;;;;;;;;;;5084227;28;20034;-78
2023/07/31 07:26:14;;;;;;;12.02;3.45;;;;;;;;;;5101641;28;20020;-77
2023/07/31 07:28:40;;;;;;;10.35;2.95;;;;;;;;;;5105152;28;20015;-77
2023/07/31 07:31:05;;;;;;;7.85;3.05;;;;;;;;;;5086433;28;20091;-78
2023/07/31 07:33:33;;;;;;;7.38;2.72;;;;;;;;;;5086566;28;20024;-78
2023/07/31 07:36:01;;;;;;;5.78;2.85;;;;;;;;;;5087433;28;20087;-78
2023/07/31 07:38:27;;;;;;;6.57;2.50;;;;;;;;;;5118342;28;20028;-78
2023/07/31 07:40:53;;;;;;;7.28;3.05;;;;;;;;;;5101570;28;20015;-78
2023/07/31 07:43:18;;;;;;;6.15;3.22;;;;;;;;;;5118297;28;20481;-77
2023/07/31 07:45:43;;;;;;;9.82;3.05;;;;;;;;;;5081838;28;20057;-77
2023/07/31 07:48:09;;;;;;;9.40;2.90;;;;;;;;;;5099625;28;20024;-77
2023/07/31 07:50:34;;;;;;;8.73;2.63;;;;;;;;;;5100560;28;20027;-77
2023/07/31 07:52:59;;;;;;;9.40;3.00;;;;;;;;;;5117742;28;20023;-78
2023/07/31 07:55:25;;;;;;;8.45;3.22;;;;;;;;;;5096575;28;20024;-78
2023/07/31 07:57:50;;;;;;;12.77;3.15;;;;;;;;;;5083493;28;20035;-80
2023/07/31 08:00:16;;;;;;;6.30;2.33;;;;;;;;;;5105164;28;20045;-77
2023/07/31 08:02:42;;;;;;;6.85;2.40;;;;;;;;;;5083333;28;20031;-78
2023/07/31 08:05:08;;;;;;;13.63;3.53;;;;;;;;;;5106179;28;20020;-78
2023/07/31 08:07:33;;;;;;;6.57;3.13;;;;;;;;;;5087721;28;20012;-78
2023/07/31 08:09:58;;;;;;;15.05;3.83;;;;;;;;;;5123901;28;20438;-78
2023/07/31 08:12:24;;;;;;;5.82;2.40;;;;;;;;;;5106232;28;20024;-78
2023/07/31 08:14:49;;;;;;;3.97;2.60;;;;;;;;;;5124098;28;20027;-79
2023/07/31 08:17:14;;;;;;;10.48;2.20;;;;;;;;;;5099560;28;20110;-77
2023/07/31 08:19:39;;;;;;;7.95;2.33;;;;;;;;;;5096184;28;20023;-77
2023/07/31 08:22:05;;;;;;;6.40;2.60;;;;;;;;;;5114121;28;20028;-78
2023/07/31 08:24:33;;;;;;;8.38;2.63;;;;;;;;;;5076277;28;20084;-77
2023/07/31 08:26:58;;;;;;;7.38;2.83;;;;;;;;;;5075425;28;20428;-77
2023/07/31 08:29:24;;;;;;;5.68;2.42;;;;;;;;;;5075661;28;20089;-77
2023/07/31 08:31:50;;;;;;;8.77;2.83;;;;;;;;;;5093736;28;20047;-77
2023/07/31 08:34:15;;;;;;;9.43;3.00;;;;;;;;;;5093554;28;20032;-77
2023/07/31 08:36:40;;;;;;;6.60;2.50;;;;;;;;;;5074966;28;20027;-77
2023/07/31 08:39:06;;;;;;;5.70;2.10;;;;;;;;;;5082785;28;20019;-77
2023/07/31 08:41:31;;;;;;;6.72;2.33;;;;;;;;;;5096073;28;20102;-77
2023/07/31 08:43:57;;;;;;;5.13;1.92;;;;;;;;;;5096216;28;20023;-76
2023/07/31 08:46:22;;;;;;;7.00;2.25;;;;;;;;;;5096244;28;20034;-77
2023/07/31 08:48:48;;;;;;;5.05;2.97;;;;;;;;;;5095815;28;20027;-76
2023/07/31 08:51:14;;;;;;;10.63;2.50;;;;;;;;;;5078385;28;20034;-77
2023/07/31 08:53:39;;;;;;;6.88;1.90;;;;;;;;;;5094610;28;20137;-76
2023/07/31 08:56:05;;;;;;;10.70;2.58;;;;;;;;;;5076913;28;20027;-76
2023/07/31 08:58:31;;;;;;;5.40;2.33;;;;;;;;;;5078346;28;20058;-77
2023/07/31 09:00:58;;;;;;;7.53;3.20;;;;;;;;;;5095217;28;20026;-77
2023/07/31 09:03:26;;;;;;;7.43;2.80;;;;;;;;;;5077596;28;20030;-77
2023/07/31 09:05:51;;;;;;;6.95;2.67;;;;;;;;;;5095115;28;20027;-76
2023/07/31 09:08:21;;;;;;;10.07;2.83;;;;;;;;;;5077802;28;20023;-77
2023/07/31 09:10:46;;;;;;;13.38;2.60;;;;;;;;;;5095671;28;20027;-76
2023/07/31 09:13:15;;;;;;;10.02;3.78;;;;;;;;;;5095282;28;20031;-77
2023/07/31 09:15:43;;;;;;;8.50;2.75;;;;;;;;;;5095145;28;20030;-77
2023/07/31 09:18:09;;;;;;;10.80;3.83;;;;;;;;;;5081742;28;20019;-76
2023/07/31 09:20:36;;;;;;;9.32;2.33;;;;;;;;;;5098372;28;20100;-78
2023/07/31 09:23:09;;;;;;;11.07;2.65;;;;;;;;;;5098378;28;20023;-76
2023/07/31 09:25:35;;;;;;;6.30;2.58;;;;;;;;;;5098959;28;20076;-77
2023/07/31 09:28:03;;;;;;;8.75;2.58;;;;;;;;;;5098892;28;20023;-77
2023/07/31 09:30:28;;;;;;;7.72;2.70;;;;;;;;;;5099137;28;20110;-77
2023/07/31 09:33:06;;;;;;;7.53;3.03;;;;;;;;;;5082809;28;20106;-78
2023/07/31 09:35:33;;;;;;;8.60;3.97;;;;;;;;;;5082568;28;20030;-78
2023/07/31 09:38:02;;;;;;;7.18;3.10;;;;;;;;;;5082293;28;20437;-79
2023/07/31 09:40:32;;;;;;;10.18;2.95;;;;;;;;;;5099795;28;20030;-78
2023/07/31 09:43:05;;;;;;;8.50;2.38;;;;;;;;;;5082632;28;20020;-78
2023/07/31 09:45:40;;;;;;;6.75;2.90;;;;;;;;;;5098630;28;20015;-78
2023/07/31 09:48:10;;;;;;;9.60;2.72;;;;;;;;;;5117477;28;20496;-78
2023/07/31 09:50:38;;;;;;;7.55;2.63;;;;;;;;;;5099529;28;20026;-77
2023/07/31 09:53:04;;;;;;;10.00;2.88;;;;;;;;;;5115973;28;20477;-76
2023/07/31 09:55:29;;;;;;;10.00;2.33;;;;;;;;;;5097762;28;20028;-78
2023/07/31 09:57:56;;;;;;;8.00;2.80;;;;;;;;;;5115036;28;20034;-78
2023/07/31 10:00:24;;;;;;;9.77;3.92;;;;;;;;;;5098062;28;20453;-78
2023/07/31 10:02:51;;;;;;;9.68;2.28;;;;;;;;;;5082989;28;20035;-78
2023/07/31 10:05:16;;;;;;;9.40;3.08;;;;;;;;;;5082785;28;20053;-77
2023/07/31 10:07:44;;;;;;;4.40;2.45;;;;;;;;;;5097965;28;20011;-77
2023/07/31 10:10:10;;;;;;;5.68;2.40;;;;;;;;;;5094639;22;20070;-77
2023/07/31 10:12:36;;;;;;;8.98;2.72;;;;;;;;;;5081222;28;20043;-77
2023/07/31 10:15:02;;;;;;;7.65;2.58;;;;;;;;;;5097645;28;20433;-77
2023/07/31 10:17:29;;;;;;;6.97;3.15;;;;;;;;;;5097538;28;20058;-77
2023/07/31 10:19:55;;;;;;;4.90;2.08;;;;;;;;;;5080764;28;20077;-77
2023/07/31 10:22:21;;;;;;;6.10;2.72;;;;;;;;;;5115417;28;20026;-77
2023/07/31 10:24:46;;;;;;;8.93;2.95;;;;;;;;;;5097506;28;20102;-77
2023/07/31 10:27:12;;;;;;;6.75;2.60;;;;;;;;;;5096823;28;20035;-77
2023/07/31 10:29:39;;;;;;;6.57;3.25;;;;;;;;;;5096766;28;20027;-78
2023/07/31 10:32:10;;;;;;;7.68;2.58;;;;;;;;;;5098800;28;20035;-77
2023/07/31 10:34:36;;;;;;;8.00;2.53;;;;;;;;;;5097892;28;20392;-76
2023/07/31 10:37:21;;;;;;;5.50;2.20;;;;;;;;;;5096949;28;20019;-76
2023/07/31 10:39:55;;;;;;;8.25;2.33;;;;;;;;;;5115493;28;20118;-76
2023/07/31 10:42:30;;;;;;;9.18;2.65;;;;;;;;;;5115700;28;20030;-76
2023/07/31 10:44:58;;;;;;;5.32;2.28;;;;;;;;;;5115068;28;20020;-76
2023/07/31 10:47:23;;;;;;;6.93;2.78;;;;;;;;;;5082744;28;20366;-76
2023/07/31 10:49:48;;;;;;;7.78;2.63;;;;;;;;;;5076835;28;20046;-76
2023/07/31 10:52:22;;;;;;;9.68;2.60;;;;;;;;;;5076563;28;20020;-76
2023/07/31 10:54:47;;;;;;;6.10;2.28;;;;;;;;;;5077678;28;20039;-77
2023/07/31 10:57:22;;;;;;;8.20;2.38;;;;;;;;;;5059985;28;20020;-76
2023/07/31 10:59:49;;;;;;;6.45;2.35;;;;;;;;;;5095046;28;20058;-74
2023/07/31 11:02:29;;;;;;;6.10;2.40;;;;;;;;;;5093754;28;20060;-74
2023/07/31 11:05:10;;;;;;;6.32;2.60;;;;;;;;;;5112993;28;20053;-74
2023/07/31 11:07:51;;;;;;;8.02;3.55;;;;;;;;;;5096722;28;20026;-74
2023/07/31 11:10:19;;;;;;;4.40;2.17;;;;;;;;;;5097359;28;20032;-76
2023/07/31 11:12:46;;;;;;;3.55;2.00;;;;;;;;;;5096998;28;20051;-74
2023/07/31 11:15:12;;;;;;;7.97;2.67;;;;;;;;;;5079938;28;20035;-74
2023/07/31 11:17:41;;;;;;;6.55;2.50;;;;;;;;;;5080321;28;20024;-74
2023/07/31 11:20:10;;;;;;;7.30;2.35;;;;;;;;;;5116268;28;20423;-74
2023/07/31 11:22:36;;;;;;;6.18;2.03;;;;;;;;;;5098115;28;20098;-73
2023/07/31 11:25:03;;;;;;;8.68;2.50;;;;;;;;;;5080131;28;20437;-74
2023/07/31 11:27:28;;;;;;;5.18;2.70;;;;;;;;;;5114494;28;20069;-73
2023/07/31 11:30:00;;;;;;;6.82;2.20;;;;;;;;;;5115083;28;20027;-73
2023/07/31 11:32:26;;;;;;;6.47;2.03;;;;;;;;;;5096605;28;20023;-73
2023/07/31 11:34:54;;;;;;;4.68;3.00;;;;;;;;;;5114988;28;20031;-73
2023/07/31 11:37:20;;;;;;;6.20;2.28;;;;;;;;;;5096277;28;20099;-73
2023/07/31 11:39:59;;;;;;;5.47;2.20;;;;;;;;;;5079461;28;20110;-74
2023/07/31 11:42:24;;;;;;;3.80;2.28;;;;;;;;;;5096628;28;20023;-73
2023/07/31 11:44:50;;;;;;;3.55;1.88;;;;;;;;;;5096184;28;20118;-74
2023/07/31 11:47:16;;;;;;;4.28;2.28;;;;;;;;;;5114041;28;20020;-77
2023/07/31 11:49:42;;;;;;;1.92;1.45;;;;;;;;;;5096546;28;20034;-75
2023/07/31 11:52:07;;;;;;;4.53;1.90;;;;;;;;;;5096278;28;20476;-76
2023/07/31 11:54:32;;;;;;;7.20;1.95;;;;;;;;;;5096333;28;20027;-76
2023/07/31 11:57:00;;;;;;;3.40;2.00;;;;;;;;;;5096548;28;20019;-75
2023/07/31 11:59:26;;;;;;;5.47;2.05;;;;;;;;;;5114042;28;20020;-74
2023/07/31 12:01:53;;;;;;;5.50;1.90;;;;;;;;;;5095920;28;20019;-76
2023/07/31 12:04:19;;;;;;;3.67;1.55;;;;;;;;;;5096414;28;20024;-75
2023/07/31 12:06:45;;;;;;;2.38;1.73;;;;;;;;;;5114133;28;20030;-75
2023/07/31 12:09:10;;;;;;;3.10;1.73;;;;;;;;;;5095969;28;20023;-75
2023/07/31 12:11:46;;;;;;;3.17;1.60;;;;;;;;;;5095845;28;20118;-75
2023/07/31 12:14:24;;;;;;;3.10;1.42;;;;;;;;;;5114478;28;20024;-75
2023/07/31 12:16:54;;;;;;;2.63;1.50;;;;;;;;;;5079263;28;20034;-76
2023/07/31 12:19:19;;;;;;;3.03;1.73;;;;;;;;;;5078907;28;20481;-75
2023/07/31 12:21:45;;;;;;;4.43;1.77;;;;;;;;;;5095481;28;20024;-77
2023/07/31 12:24:10;;;;;;;2.80;1.55;;;;;;;;;;5078973;28;20035;-75
2023/07/31 12:26:35;;;;;;;3.15;1.85;;;;;;;;;;5096180;28;20019;-75
2023/07/31 12:29:00;;;;;;;3.97;1.83;;;;;;;;;;5095827;28;20106;-75
2023/07/31 12:31:28;;;;;;;3.65;1.70;;;;;;;;;;5095463;28;20035;-75
2023/07/31 12:33:53;;;;;;;7.10;1.67;;;;;;;;;;5096025;28;20023;-74
2023/07/31 12:36:22;;;;;;;2.78;1.52;;;;;;;;;;5095646;28;20054;-74
2023/07/31 12:38:49;;;;;;;2.92;1.65;;;;;;;;;;5095710;28;20023;-75
2023/07/31 12:41:14;;;;;;;3.33;1.63;;;;;;;;;;5113395;28;20400;-75
2023/07/31 12:43:41;;;;;;;4.90;2.03;;;;;;;;;;5095733;28;20020;-75
2023/07/31 12:46:10;;;;;;;3.47;2.00;;;;;;;;;;5095733;28;20023;-75
2023/07/31 12:48:36;;;;;;;3.00;1.80;;;;;;;;;;5096011;28;20385;-75
2023/07/31 12:51:02;;;;;;;5.88;2.03;;;;;;;;;;5079075;28;20058;-76
2023/07/31 12:53:27;;;;;;;4.05;1.90;;;;;;;;;;5099656;28;20024;-75
2023/07/31 12:55:53;;;;;;;3.22;1.90;;;;;;;;;;5117836;28;20030;-75
2023/07/31 12:58:18;;;;;;;7.55;2.13;;;;;;;;;;5117637;28;20027;-77
2023/07/31 13:00:43;;;;;;;5.25;2.42;;;;;;;;;;5099348;28;20035;-76
2023/07/31 13:03:08;;;;;;;5.05;2.20;;;;;;;;;;5099015;28;20023;-76
2023/07/31 13:05:34;;;;;;;6.13;2.20;;;;;;;;;;5099522;28;20057;-75
2023/07/31 13:07:59;;;;;;;7.43;2.30;;;;;;;;;;5099192;28;20011;-74
2023/07/31 13:10:26;;;;;;;4.50;1.80;;;;;;;;;;5098897;28;20397;-76
2023/07/31 13:12:52;;;;;;;5.45;2.47;;;;;;;;;;5099156;28;20036;-76
2023/07/31 13:15:17;;;;;;;2.72;1.83;;;;;;;;;;5117118;28;20469;-76
2023/07/31 13:17:42;;;;;;;5.10;2.13;;;;;;;;;;5082201;28;20076;-77
2023/07/31 13:20:08;;;;;;;3.17;1.73;;;;;;;;;;5117553;28;20024;-75
2023/07/31 13:22:33;;;;;;;3.33;2.10;;;;;;;;;;5082269;28;20055;-76
2023/07/31 13:24:58;;;;;;;3.58;1.85;;;;;;;;;;5099022;28;20020;-75
2023/07/31 13:27:24;;;;;;;3.88;1.90;;;;;;;;;;5116603;28;20492;-76
2023/07/31 13:29:50;;;;;;;4.60;1.73;;;;;;;;;;5082069;28;20031;-76
2023/07/31 13:32:16;;;;;;;5.40;1.90;;;;;;;;;;5098814;28;20431;-76
2023/07/31 13:34:42;;;;;;;4.78;2.20;;;;;;;;;;5081419;28;20020;-76
2023/07/31 13:37:07;;;;;;;3.25;2.00;;;;;;;;;;5082115;28;20072;-75
2023/07/31 13:39:33;;;;;;;3.45;2.00;;;;;;;;;;5098724;28;20059;-76
2023/07/31 13:41:58;;;;;;;2.72;1.70;;;;;;;;;;5098815;28;20034;-75
2023/07/31 13:44:24;;;;;;;4.95;1.75;;;;;;;;;;5116746;28;20023;-75
2023/07/31 13:46:49;;;;;;;2.90;1.63;;;;;;;;;;5082245;28;20043;-76
2023/07/31 13:49:14;;;;;;;6.68;2.38;;;;;;;;;;5097950;28;20020;-76
2023/07/31 13:51:40;;;;;;;3.10;2.22;;;;;;;;;;5116961;28;20430;-76
2023/07/31 13:54:06;;;;;;;2.45;1.58;;;;;;;;;;5098793;28;20488;-76
2023/07/31 13:56:32;;;;;;;3.35;1.80;;;;;;;;;;5098383;28;20094;-75
2023/07/31 13:58:57;;;;;;;4.47;1.55;;;;;;;;;;5097737;28;20123;-75
2023/07/31 14:01:22;;;;;;;2.30;1.55;;;;;;;;;;5116416;28;20023;-77
2023/07/31 14:03:48;;;;;;;5.65;1.50;;;;;;;;;;5097164;28;20099;-76
2023/07/31 14:06:13;;;;;;;2.50;1.60;;;;;;;;;;5098651;28;20072;-75
2023/07/31 14:08:38;;;;;;;2.50;1.52;;;;;;;;;;5097931;28;20381;-75
2023/07/31 14:11:04;;;;;;;3.40;2.17;;;;;;;;;;5097824;28;20027;-75
2023/07/31 14:13:29;;;;;;;3.42;1.30;;;;;;;;;;5081315;28;20090;-75
2023/07/31 14:15:54;;;;;;;3.92;1.40;;;;;;;;;;5098014;28;20024;-75
2023/07/31 14:18:19;;;;;;;2.83;1.58;;;;;;;;;;5115622;28;20026;-75
2023/07/31 14:20:45;;;;;;;5.30;1.20;;;;;;;;;;5116395;28;20023;-75
2023/07/31 14:23:11;;;;;;;2.42;1.40;;;;;;;;;;5097853;28;20016;-76
2023/07/31 14:25:36;;;;;;;5.35;1.35;;;;;;;;;;5115928;28;20028;-77
2023/07/31 14:28:01;;;;;;;3.72;1.35;;;;;;;;;;5098010;28;20042;-77
2023/07/31 14:30:28;;;;;;;3.17;1.52;;;;;;;;;;5080690;28;20024;-76
2023/07/31 14:32:53;;;;;;;2.88;1.60;;;;;;;;;;5115347;28;20030;-77